createdAt,value
2022-12-15T00:03:08.051Z,81.51
2022-12-15T00:08:29.327Z,80.99
2022-12-15T00:13:50.810Z,83.07
2022-12-15T00:19:11.263Z,84.94
2022-12-15T00:24:31.908Z,83.10
2022-12-15T00:29:53.792Z,83.00
2022-12-15T00:35:13.982Z,82.20
2022-12-15T00:40:16.969Z,81.43
2022-12-15T00:45:21.232Z,81.60
2022-12-15T00:50:41.583Z,81.66
2022-12-15T00:56:01.921Z,81.45
2022-12-15T01:01:26.721Z,80.36
2022-12-15T01:06:47.281Z,80.58
2022-12-15T01:12:07.752Z,81.82
2022-12-15T01:17:29.900Z,82.43
2022-12-15T01:22:32.864Z,82.07
2022-12-15T01:27:36.087Z,82.27
2022-12-15T01:32:45.846Z,81.79
2022-12-15T01:37:50.277Z,80.95
2022-12-15T01:42:53.846Z,82.33
2022-12-15T01:48:01.760Z,81.66
2022-12-15T01:53:04.843Z,79.22
2022-12-15T01:58:10.307Z,82.21
2022-12-15T02:03:15.173Z,81.58
2022-12-15T02:08:18.277Z,79.69
2022-12-15T02:13:29.416Z,79.05
2022-12-15T02:18:42.553Z,78.92
2022-12-15T02:24:19.859Z,78.97
2022-12-15T02:29:54.602Z,79.03
2022-12-15T02:35:03.868Z,79.85
2022-12-15T02:40:11.863Z,79.19
2022-12-15T02:45:20.667Z,78.81
2022-12-15T02:50:43.287Z,79.88
2022-12-15T02:55:54.032Z,79.22
2022-12-15T03:01:02.461Z,78.86
2022-12-15T03:06:07.254Z,79.49
2022-12-15T03:11:10.242Z,79.88
2022-12-15T03:16:13.536Z,79.56
2022-12-15T03:21:17.848Z,80.03
2022-12-15T03:26:20.818Z,81.41
2022-12-15T03:31:23.828Z,80.77
2022-12-15T03:36:28.153Z,81.16
2022-12-15T03:41:31.055Z,84.76
2022-12-15T03:46:34.016Z,83.66
2022-12-15T03:51:38.324Z,84.12
2022-12-15T03:56:41.331Z,84.52
2022-12-15T04:01:48.349Z,84.19
2022-12-15T04:06:52.726Z,84.38
2022-12-15T04:11:55.644Z,83.83
2022-12-15T04:16:58.846Z,84.54
2022-12-15T04:22:04.652Z,83.83
2022-12-15T04:27:25.109Z,84.29
2022-12-15T04:32:45.619Z,83.25
2022-12-15T04:38:11.983Z,83.24
2022-12-15T04:43:32.564Z,83.44
2022-12-15T04:48:52.991Z,82.98
2022-12-15T04:54:14.622Z,82.43
2022-12-15T04:59:35.108Z,82.81
2022-12-15T05:04:55.322Z,83.13
2022-12-15T05:10:16.996Z,82.30
2022-12-15T05:15:37.524Z,82.46
2022-12-15T05:20:58.136Z,82.84
2022-12-15T05:26:19.871Z,83.51
2022-12-15T05:31:40.063Z,83.65
2022-12-15T05:36:43.018Z,82.11
2022-12-15T05:41:47.390Z,82.44
2022-12-15T05:46:50.419Z,83.55
2022-12-15T05:51:53.406Z,82.84
2022-12-15T05:56:57.642Z,83.63
2022-12-15T06:02:00.620Z,83.17
2022-12-15T06:07:03.599Z,83.31
2022-12-15T06:12:08.128Z,82.53
2022-12-15T06:17:11.064Z,84.08
2022-12-15T06:22:13.985Z,83.54
2022-12-15T06:27:18.250Z,82.74
2022-12-15T06:32:21.987Z,82.19
2022-12-15T06:37:24.903Z,82.86
2022-12-15T06:42:29.147Z,83.92
2022-12-15T06:47:32.007Z,85.23
2022-12-15T06:52:34.915Z,83.59
2022-12-15T06:57:39.833Z,82.38
2022-12-15T07:02:43.256Z,83.37
2022-12-15T07:07:53.362Z,83.19
2022-12-15T07:12:58.739Z,81.50
2022-12-15T07:18:01.881Z,81.57
2022-12-15T07:23:07.995Z,81.64
2022-12-15T07:28:12.531Z,81.12
2022-12-15T07:33:15.942Z,80.84
2022-12-15T07:38:18.862Z,81.59
2022-12-15T07:43:24.077Z,81.56
2022-12-15T07:48:27.447Z,81.67
2022-12-15T07:53:30.914Z,80.96
2022-12-15T07:58:35.627Z,81.62
2022-12-15T08:03:39.428Z,80.85
2022-12-15T08:08:44.649Z,81.42
2022-12-15T08:14:02.579Z,79.78
2022-12-15T08:19:06.787Z,78.79
2022-12-15T08:24:10.664Z,82.15
2022-12-15T08:29:49.518Z,82.47
2022-12-15T08:34:39.955Z,80.35
2022-12-15T08:39:42.953Z,79.64
2022-12-15T08:44:49.770Z,81.68
2022-12-15T08:49:54.077Z,79.28
2022-12-15T08:54:56.932Z,78.87
2022-12-15T09:00:01.397Z,79.20
2022-12-15T09:05:06.247Z,80.82
2022-12-15T09:10:09.840Z,82.41
2022-12-15T09:15:14.614Z,82.61
2022-12-15T09:20:18.194Z,79.97
2022-12-15T09:25:21.194Z,79.17
2022-12-15T09:30:25.711Z,78.41
2022-12-15T09:35:28.990Z,77.22
2022-12-15T09:40:33.409Z,78.43
2022-12-15T09:45:44.388Z,79.16
2022-12-15T09:50:49.567Z,78.81
2022-12-15T09:56:03.532Z,77.49
2022-12-15T10:01:19.520Z,77.48
2022-12-15T10:06:33.308Z,77.12
2022-12-15T10:11:50.551Z,76.44
2022-12-15T10:17:03.988Z,74.92
2022-12-15T10:22:11.525Z,73.33
2022-12-15T10:27:25.637Z,72.41
2022-12-15T10:32:42.632Z,70.44
2022-12-15T10:37:45.884Z,71.92
2022-12-15T10:42:51.548Z,72.35
2022-12-15T10:48:02.518Z,69.95
2022-12-15T10:53:10.076Z,71.45
2022-12-15T10:58:18.894Z,71.54
2022-12-15T11:03:26.239Z,70.45
2022-12-15T11:08:31.270Z,69.91
2022-12-15T11:19:08.046Z,71.67
2022-12-15T11:24:16.089Z,71.25
2022-12-15T11:29:34.778Z,71.39
2022-12-15T11:34:42.917Z,72.85
2022-12-15T11:40:02.192Z,72.19
2022-12-15T11:45:09.968Z,72.52
2022-12-15T11:50:30.510Z,72.98
2022-12-15T11:55:44.296Z,73.61
2022-12-15T12:00:55.936Z,71.41
2022-12-15T12:06:08.538Z,71.45
2022-12-15T12:11:15.684Z,72.97
2022-12-15T12:16:33.185Z,73.40
2022-12-15T12:21:41.720Z,75.73
2022-12-15T12:26:48.533Z,74.11
2022-12-15T12:32:05.190Z,75.44
2022-12-15T12:37:18.035Z,74.57
2022-12-15T12:42:27.297Z,75.27
2022-12-15T12:47:34.518Z,75.25
2022-12-15T12:52:39.161Z,75.12
2022-12-15T12:57:45.516Z,74.06
2022-12-15T13:03:10.124Z,74.49
2022-12-15T13:08:52.019Z,74.82
2022-12-15T13:13:56.652Z,74.94
2022-12-15T13:19:05.259Z,75.15
2022-12-15T13:24:23.083Z,76.21
2022-12-15T13:29:27.526Z,75.92
2022-12-15T13:34:36.875Z,76.17
2022-12-15T13:39:58.861Z,76.71
2022-12-15T13:45:29.941Z,76.33
2022-12-15T13:50:40.359Z,75.57
2022-12-15T13:55:56.793Z,76.10
2022-12-15T14:01:01.117Z,75.96
2022-12-15T14:06:04.096Z,75.96
2022-12-15T14:11:29.424Z,76.75
2022-12-15T14:16:35.242Z,76.41
2022-12-15T14:21:38.335Z,78.60
2022-12-15T14:26:42.688Z,78.06
2022-12-15T14:31:51.231Z,78.75
2022-12-15T14:36:57.150Z,78.86
2022-12-15T14:42:02.171Z,79.18
2022-12-15T14:47:09.427Z,79.22
2022-12-15T14:52:28.675Z,78.33
2022-12-15T14:57:42.449Z,79.66
2022-12-15T15:02:46.913Z,79.80
2022-12-15T15:03:13.684Z,69.65
2022-12-15T15:07:56.683Z,79.74
2022-12-15T15:13:00.127Z,80.60
2022-12-15T15:18:04.560Z,79.51
2022-12-15T15:23:17.704Z,80.66
2022-12-15T15:28:25.962Z,79.06
2022-12-15T15:33:30.283Z,79.41
2022-12-15T15:38:36.985Z,79.47
2022-12-15T15:43:39.998Z,80.01
2022-12-15T15:48:47.859Z,79.68
2022-12-15T15:53:50.872Z,79.86
2022-12-15T15:58:53.892Z,79.76
2022-12-15T16:03:58.370Z,79.65
2022-12-15T16:09:01.426Z,79.93
2022-12-15T16:14:04.739Z,78.60
2022-12-15T16:19:09.247Z,80.29
2022-12-15T16:24:17.049Z,79.30
2022-12-15T16:29:21.896Z,80.11
2022-12-15T16:34:26.247Z,80.62
2022-12-15T16:39:32.135Z,80.64
2022-12-15T16:44:35.038Z,80.63
2022-12-15T16:49:40.487Z,81.01
2022-12-15T16:54:46.291Z,81.31
2022-12-15T16:59:49.812Z,80.96
2022-12-15T17:04:55.234Z,79.74
2022-12-15T17:09:58.345Z,79.61
2022-12-15T17:15:02.429Z,80.49
2022-12-15T17:26:09.371Z,80.16
2022-12-15T17:30:59.453Z,80.71
2022-12-15T17:36:11.746Z,79.63
2022-12-15T17:41:42.304Z,78.78
2022-12-15T17:46:38.611Z,81.23
2022-12-15T17:51:43.906Z,81.76
2022-12-15T17:56:49.206Z,81.99
2022-12-15T18:01:52.221Z,80.85
2022-12-15T18:07:01.465Z,80.58
2022-12-15T18:12:11.961Z,81.24
2022-12-15T18:17:14.988Z,80.90
2022-12-15T18:27:29.632Z,81.89
2022-12-15T18:32:38.217Z,81.64
2022-12-15T18:37:41.255Z,81.58
2022-12-15T18:42:47.125Z,81.75
2022-12-15T18:47:50.828Z,81.51
2022-12-15T18:52:58.918Z,81.43
2022-12-15T18:58:03.286Z,81.95
2022-12-15T19:03:06.672Z,81.91
2022-12-15T19:08:14.030Z,81.73
2022-12-15T19:13:20.929Z,83.82
2022-12-15T19:18:42.539Z,82.67
2022-12-15T19:23:45.537Z,81.61
2022-12-15T19:28:49.776Z,81.58
2022-12-15T19:33:52.656Z,81.44
2022-12-15T19:38:56.600Z,81.26
2022-12-15T19:44:01.013Z,81.31
2022-12-15T19:49:03.962Z,81.15
2022-12-15T19:54:07.853Z,80.98
2022-12-15T19:59:20.421Z,81.50
2022-12-15T20:04:24.499Z,81.29
2022-12-15T20:09:27.628Z,81.27
2022-12-15T20:14:32.295Z,81.59
2022-12-15T20:19:35.231Z,82.00
2022-12-15T20:24:38.147Z,81.65
2022-12-15T20:29:42.420Z,81.86
2022-12-15T20:34:45.855Z,81.52
2022-12-15T20:39:53.930Z,81.33
2022-12-15T20:45:01.373Z,81.99
2022-12-15T20:50:04.751Z,82.02
2022-12-15T20:55:11.503Z,82.27
2022-12-15T21:00:18.000Z,82.49
2022-12-15T21:05:23.426Z,82.33
2022-12-15T21:10:28.250Z,82.17
2022-12-15T21:15:32.557Z,80.97
2022-12-15T21:20:35.485Z,81.95
2022-12-15T21:25:38.519Z,82.42
2022-12-15T21:30:43.105Z,82.02
2022-12-15T21:35:48.455Z,82.20
2022-12-15T21:40:57.673Z,84.13
2022-12-15T21:46:12.546Z,84.13
2022-12-15T21:51:16.923Z,83.63
2022-12-15T21:56:22.315Z,84.25
2022-12-15T22:01:30.351Z,83.81
2022-12-15T22:06:33.351Z,83.22
2022-12-15T22:11:36.258Z,82.37
2022-12-15T22:16:40.577Z,82.84
2022-12-15T22:21:43.521Z,83.00
2022-12-15T22:26:46.499Z,85.07
2022-12-15T22:31:51.882Z,83.70
2022-12-15T22:36:55.140Z,83.89
2022-12-15T22:41:58.513Z,83.36
2022-12-15T22:47:04.657Z,83.15
2022-12-15T22:52:16.491Z,83.63
2022-12-15T22:57:22.624Z,83.53
2022-12-15T23:02:27.318Z,83.48
2022-12-15T23:07:30.291Z,82.39
2022-12-15T23:12:33.163Z,82.32
2022-12-15T23:17:37.473Z,82.10
2022-12-15T23:22:40.383Z,83.27
2022-12-15T23:27:43.333Z,82.42
2022-12-15T23:32:47.632Z,82.51
2022-12-15T23:37:50.930Z,83.28
2022-12-15T23:42:53.839Z,83.58
2022-12-15T23:47:59.522Z,83.57
2022-12-15T23:53:02.684Z,83.97
2022-12-15T23:58:05.575Z,84.47
